createdAt,value
2023-05-18T00:00:26.610Z,500.00
2023-05-18T00:01:26.621Z,500.00
2023-05-18T00:02:26.825Z,500.00
2023-05-18T00:03:26.833Z,440.00
2023-05-18T00:04:26.722Z,417.00
2023-05-18T00:05:26.733Z,412.00
2023-05-18T00:06:26.771Z,432.00
2023-05-18T00:07:26.799Z,445.00
2023-05-18T00:08:26.846Z,471.00
2023-05-18T00:09:26.879Z,496.00
2023-05-18T00:10:26.946Z,501.00
2023-05-18T00:11:26.950Z,500.00
2023-05-18T00:12:27.001Z,500.00
2023-05-18T00:13:27.068Z,500.00
2023-05-18T00:14:27.067Z,500.00
2023-05-18T00:15:27.249Z,500.00
2023-05-18T00:16:27.156Z,500.00
2023-05-18T00:17:27.209Z,504.00
2023-05-18T00:18:27.253Z,501.00
2023-05-18T00:19:27.286Z,500.00
2023-05-18T00:20:27.300Z,501.00
2023-05-18T00:21:27.329Z,500.00
2023-05-18T00:22:27.399Z,500.00
2023-05-18T00:23:27.418Z,500.00
2023-05-18T00:24:27.456Z,504.00
2023-05-18T00:25:27.685Z,500.00
2023-05-18T00:26:27.524Z,500.00
2023-05-18T00:27:27.576Z,501.00
2023-05-18T00:28:27.632Z,502.00
2023-05-18T00:29:27.691Z,501.00
2023-05-18T00:30:27.697Z,502.00
2023-05-18T00:31:27.786Z,505.00
2023-05-18T00:32:27.838Z,506.00
2023-05-18T00:33:27.836Z,504.00
2023-05-18T00:34:27.876Z,501.00
2023-05-18T00:35:28.096Z,501.00
2023-05-18T00:36:27.946Z,500.00
2023-05-18T00:37:27.991Z,500.00
2023-05-18T00:38:28.034Z,502.00
2023-05-18T00:39:28.071Z,500.00
2023-05-18T00:40:28.115Z,505.00
2023-05-18T00:41:28.161Z,503.00
2023-05-18T00:42:28.176Z,503.00
2023-05-18T00:43:28.207Z,502.00
2023-05-18T00:44:28.254Z,502.00
2023-05-18T00:45:28.532Z,504.00
2023-05-18T00:46:28.449Z,502.00
2023-05-18T00:47:28.350Z,504.00
2023-05-18T00:48:28.384Z,503.00
2023-05-18T00:49:28.428Z,504.00
2023-05-18T00:50:28.466Z,501.00
2023-05-18T00:51:28.482Z,501.00
2023-05-18T00:52:28.528Z,500.00
2023-05-18T00:53:28.554Z,500.00
2023-05-18T00:54:28.588Z,500.00
2023-05-18T00:55:29.121Z,507.00
2023-05-18T00:56:28.678Z,507.00
2023-05-18T00:57:28.816Z,503.00
2023-05-18T00:58:28.753Z,503.00
2023-05-18T00:59:28.771Z,500.00
2023-05-18T01:00:28.855Z,504.00
2023-05-18T01:01:28.993Z,501.00
2023-05-18T01:02:28.945Z,500.00
2023-05-18T01:03:28.920Z,500.00
2023-05-18T01:04:28.939Z,502.00
2023-05-18T01:05:29.152Z,500.00
2023-05-18T01:06:28.994Z,502.00
2023-05-18T01:07:29.062Z,500.00
2023-05-18T01:08:29.054Z,505.00
2023-05-18T01:09:29.096Z,500.00
2023-05-18T01:10:29.126Z,504.00
2023-05-18T01:11:29.191Z,506.00
2023-05-18T01:12:29.204Z,505.00
2023-05-18T01:13:29.216Z,503.00
2023-05-18T01:14:30.636Z,500.00
2023-05-18T01:15:29.632Z,502.00
2023-05-18T01:16:29.479Z,502.00
2023-05-18T01:17:29.549Z,504.00
2023-05-18T01:18:29.522Z,500.00
2023-05-18T01:19:29.536Z,502.00
2023-05-18T01:20:29.567Z,500.00
2023-05-18T01:21:29.597Z,500.00
2023-05-18T01:22:29.733Z,504.00
2023-05-18T01:23:29.870Z,505.00
2023-05-18T01:24:29.704Z,507.00
2023-05-18T01:25:30.256Z,504.00
2023-05-18T01:26:30.095Z,503.00
2023-05-18T01:27:29.811Z,504.00
2023-05-18T01:28:29.839Z,503.00
2023-05-18T01:29:29.863Z,508.00
2023-05-18T01:30:29.893Z,506.00
2023-05-18T01:31:30.253Z,504.00
2023-05-18T01:32:29.982Z,505.00
2023-05-18T01:33:30.023Z,503.00
2023-05-18T01:34:30.057Z,505.00
2023-05-18T01:35:30.250Z,505.00
2023-05-18T01:36:30.121Z,505.00
2023-05-18T01:37:30.140Z,506.00
2023-05-18T01:38:30.166Z,500.00
2023-05-18T01:39:30.201Z,501.00
2023-05-18T01:40:30.232Z,505.00
2023-05-18T01:41:30.308Z,504.00
2023-05-18T01:42:30.319Z,508.00
2023-05-18T01:43:30.337Z,505.00
2023-05-18T01:44:30.375Z,506.00
2023-05-18T01:45:30.730Z,502.00
2023-05-18T01:46:30.500Z,508.00
2023-05-18T01:47:30.513Z,504.00
2023-05-18T01:48:30.530Z,502.00
2023-05-18T01:49:30.600Z,501.00
2023-05-18T01:50:30.604Z,506.00
2023-05-18T01:51:30.640Z,503.00
2023-05-18T01:52:30.701Z,503.00
2023-05-18T01:53:30.723Z,503.00
2023-05-18T01:54:30.788Z,507.00
2023-05-18T01:55:31.082Z,506.00
2023-05-18T01:56:30.834Z,506.00
2023-05-18T01:57:30.871Z,504.00
2023-05-18T01:58:30.897Z,506.00
2023-05-18T01:59:30.944Z,504.00
2023-05-18T02:00:30.978Z,505.00
2023-05-18T02:01:31.032Z,506.00
2023-05-18T02:02:31.108Z,503.00
2023-05-18T02:03:31.288Z,503.00
2023-05-18T02:04:31.139Z,501.00
2023-05-18T02:05:31.533Z,503.00
2023-05-18T02:06:31.202Z,500.00
2023-05-18T02:07:31.248Z,500.00
2023-05-18T02:08:31.265Z,502.00
2023-05-18T02:09:31.308Z,505.00
2023-05-18T02:10:31.336Z,507.00
2023-05-18T02:11:31.375Z,504.00
2023-05-18T02:12:31.403Z,505.00
2023-05-18T02:13:31.436Z,503.00
2023-05-18T02:14:31.478Z,504.00
2023-05-18T02:15:31.584Z,501.00
2023-05-18T02:16:31.592Z,507.00
2023-05-18T02:17:31.618Z,507.00
2023-05-18T02:18:31.663Z,506.00
2023-05-18T02:19:31.673Z,506.00
2023-05-18T02:20:31.691Z,503.00
2023-05-18T02:21:31.755Z,504.00
2023-05-18T02:22:31.765Z,503.00
2023-05-18T02:23:31.801Z,507.00
2023-05-18T02:24:31.845Z,502.00
2023-05-18T02:25:32.007Z,503.00
2023-05-18T02:26:31.907Z,500.00
2023-05-18T02:27:31.945Z,504.00
2023-05-18T02:28:32.009Z,502.00
2023-05-18T02:29:32.023Z,504.00
2023-05-18T02:30:32.054Z,507.00
2023-05-18T02:31:32.098Z,511.00
2023-05-18T02:32:32.159Z,502.00
2023-05-18T02:33:32.177Z,505.00
2023-05-18T02:34:32.218Z,505.00
2023-05-18T02:35:32.469Z,503.00
2023-05-18T02:36:32.292Z,509.00
2023-05-18T02:37:32.460Z,504.00
2023-05-18T02:38:32.372Z,507.00
2023-05-18T02:39:32.439Z,504.00
2023-05-18T02:40:32.451Z,503.00
2023-05-18T02:41:32.472Z,507.00
2023-05-18T02:42:32.511Z,503.00
2023-05-18T02:43:32.561Z,503.00
2023-05-18T02:44:32.603Z,509.00
2023-05-18T02:45:32.896Z,502.00
2023-05-18T02:46:32.673Z,504.00
2023-05-18T02:47:32.759Z,506.00
2023-05-18T02:48:32.763Z,505.00
2023-05-18T02:49:32.793Z,504.00
2023-05-18T02:50:32.853Z,507.00
2023-05-18T02:51:32.895Z,507.00
2023-05-18T02:52:32.924Z,506.00
2023-05-18T02:53:32.994Z,505.00
2023-05-18T02:54:33.003Z,502.00
2023-05-18T02:55:33.093Z,504.00
2023-05-18T02:56:33.080Z,503.00
2023-05-18T02:57:33.117Z,505.00
2023-05-18T02:58:33.156Z,503.00
2023-05-18T02:59:33.210Z,505.00
2023-05-18T03:00:33.226Z,509.00
2023-05-18T03:01:33.302Z,507.00
2023-05-18T03:02:33.409Z,510.00
2023-05-18T03:03:33.394Z,504.00
2023-05-18T03:04:33.390Z,508.00
2023-05-18T03:05:33.430Z,504.00
2023-05-18T03:06:33.463Z,506.00
2023-05-18T03:07:33.491Z,510.00
2023-05-18T03:08:33.635Z,507.00
2023-05-18T03:09:33.599Z,507.00
2023-05-18T03:10:33.606Z,506.00
2023-05-18T03:11:33.639Z,504.00
2023-05-18T03:12:33.666Z,506.00
2023-05-18T03:13:33.703Z,506.00
2023-05-18T03:14:33.742Z,505.00
2023-05-18T03:15:33.806Z,504.00
2023-05-18T03:16:33.867Z,506.00
2023-05-18T03:17:33.905Z,507.00
2023-05-18T03:18:33.997Z,504.00
2023-05-18T03:19:33.926Z,503.00
2023-05-18T03:20:33.969Z,505.00
2023-05-18T03:21:34.158Z,504.00
2023-05-18T03:22:34.047Z,500.00
2023-05-18T03:23:34.103Z,509.00
2023-05-18T03:24:34.115Z,508.00
2023-05-18T03:25:34.176Z,510.00
2023-05-18T03:26:34.190Z,509.00
2023-05-18T03:27:34.234Z,510.00
2023-05-18T03:28:34.273Z,505.00
2023-05-18T03:29:34.301Z,509.00
2023-05-18T03:30:34.337Z,505.00
2023-05-18T03:31:34.430Z,506.00
2023-05-18T03:32:34.464Z,504.00
2023-05-18T03:33:34.463Z,508.00
2023-05-18T03:34:34.479Z,504.00
2023-05-18T03:35:34.512Z,505.00
2023-05-18T03:36:34.550Z,504.00
2023-05-18T03:37:34.589Z,507.00
2023-05-18T03:38:34.606Z,505.00
2023-05-18T03:39:34.646Z,509.00
2023-05-18T03:40:34.677Z,506.00
2023-05-18T03:41:34.748Z,510.00
2023-05-18T03:42:34.741Z,507.00
2023-05-18T03:43:34.769Z,506.00
2023-05-18T03:44:34.822Z,506.00
2023-05-18T03:45:34.849Z,506.00
2023-05-18T03:46:34.940Z,509.00
2023-05-18T03:47:34.942Z,507.00
2023-05-18T03:48:34.951Z,504.00
2023-05-18T03:49:34.988Z,509.00
2023-05-18T03:50:35.031Z,506.00
2023-05-18T03:51:35.057Z,507.00
2023-05-18T03:52:35.098Z,505.00
2023-05-18T03:53:35.138Z,505.00
2023-05-18T03:54:35.168Z,504.00
2023-05-18T03:55:35.200Z,507.00
2023-05-18T03:56:35.235Z,506.00
2023-05-18T03:57:35.294Z,507.00
2023-05-18T03:58:35.313Z,506.00
2023-05-18T03:59:35.346Z,507.00
2023-05-18T04:00:35.383Z,502.00
2023-05-18T04:01:35.432Z,501.00
2023-05-18T04:02:35.515Z,507.00
2023-05-18T04:03:35.545Z,505.00
2023-05-18T04:04:35.513Z,503.00
2023-05-18T04:05:35.548Z,508.00
2023-05-18T04:06:35.589Z,502.00
2023-05-18T04:07:35.630Z,502.00
2023-05-18T04:08:35.674Z,502.00
2023-05-18T04:09:35.730Z,504.00
2023-05-18T04:10:35.743Z,502.00
2023-05-18T04:11:35.778Z,500.00
2023-05-18T04:12:35.826Z,509.00
2023-05-18T04:13:35.884Z,504.00
2023-05-18T04:14:35.900Z,503.00
2023-05-18T04:15:35.932Z,508.00
2023-05-18T04:16:36.055Z,508.00
2023-05-18T04:17:36.090Z,505.00
2023-05-18T04:18:36.077Z,509.00
2023-05-18T04:19:36.160Z,507.00
2023-05-18T04:20:36.095Z,507.00
2023-05-18T04:21:36.218Z,507.00
2023-05-18T04:22:36.166Z,508.00
2023-05-18T04:23:36.208Z,504.00
2023-05-18T04:24:36.261Z,504.00
2023-05-18T04:25:36.277Z,507.00
2023-05-18T04:26:36.311Z,504.00
2023-05-18T04:27:36.345Z,510.00
2023-05-18T04:28:36.370Z,506.00
2023-05-18T04:29:36.439Z,504.00
2023-05-18T04:30:36.452Z,504.00
2023-05-18T04:31:36.569Z,504.00
2023-05-18T04:32:36.642Z,502.00
2023-05-18T04:33:36.547Z,502.00
2023-05-18T04:34:36.583Z,506.00
2023-05-18T04:35:36.621Z,505.00
2023-05-18T04:36:36.656Z,509.00
2023-05-18T04:37:36.694Z,503.00
2023-05-18T04:38:36.731Z,504.00
2023-05-18T04:39:36.760Z,508.00
2023-05-18T04:40:36.789Z,509.00
2023-05-18T04:41:36.824Z,505.00
2023-05-18T04:42:36.855Z,507.00
2023-05-18T04:43:36.899Z,506.00
2023-05-18T04:44:36.942Z,505.00
2023-05-18T04:45:37.050Z,508.00
2023-05-18T04:46:37.020Z,509.00
2023-05-18T04:47:37.055Z,502.00
2023-05-18T04:48:37.065Z,501.00
2023-05-18T04:49:37.098Z,500.00
2023-05-18T04:50:37.143Z,505.00
2023-05-18T04:51:37.176Z,506.00
2023-05-18T04:52:37.239Z,512.00
2023-05-18T04:53:37.243Z,507.00
2023-05-18T04:54:37.270Z,508.00
2023-05-18T04:55:37.307Z,509.00
2023-05-18T04:56:37.378Z,507.00
2023-05-18T04:57:37.380Z,506.00
2023-05-18T04:58:37.417Z,503.00
2023-05-18T04:59:37.472Z,507.00
2023-05-18T05:00:37.468Z,511.00
2023-05-18T05:01:37.672Z,511.00
2023-05-18T05:02:37.685Z,509.00
2023-05-18T05:03:37.653Z,507.00
2023-05-18T05:04:37.594Z,507.00
2023-05-18T05:05:37.624Z,503.00
2023-05-18T05:06:37.649Z,505.00
2023-05-18T05:07:37.674Z,505.00
2023-05-18T05:08:37.695Z,508.00
2023-05-18T05:09:37.754Z,504.00
2023-05-18T05:10:37.753Z,503.00
2023-05-18T05:11:37.774Z,502.00
2023-05-18T05:12:37.819Z,508.00
2023-05-18T05:13:37.849Z,502.00
2023-05-18T05:14:37.861Z,506.00
2023-05-18T05:15:38.020Z,508.00
2023-05-18T05:16:37.928Z,505.00
2023-05-18T05:17:37.981Z,507.00
2023-05-18T05:18:38.006Z,509.00
2023-05-18T05:19:38.006Z,510.00
2023-05-18T05:20:38.030Z,510.00
2023-05-18T05:21:38.080Z,509.00
2023-05-18T05:22:38.161Z,511.00
2023-05-18T05:23:38.115Z,512.00
2023-05-18T05:24:38.135Z,511.00
2023-05-18T05:25:38.163Z,510.00
2023-05-18T05:26:38.186Z,511.00
2023-05-18T05:27:38.216Z,506.00
2023-05-18T05:28:38.256Z,511.00
2023-05-18T05:29:38.289Z,509.00
2023-05-18T05:30:38.355Z,508.00
2023-05-18T05:31:38.409Z,512.00
2023-05-18T05:32:38.442Z,513.00
2023-05-18T05:33:38.458Z,505.00
2023-05-18T05:34:38.469Z,506.00
2023-05-18T05:35:38.741Z,509.00
2023-05-18T05:36:38.561Z,511.00
2023-05-18T05:37:38.584Z,509.00
2023-05-18T05:38:38.597Z,505.00
2023-05-18T05:39:38.667Z,508.00
2023-05-18T05:40:38.661Z,511.00
2023-05-18T05:41:38.697Z,504.00
2023-05-18T05:42:38.767Z,507.00
2023-05-18T05:43:38.762Z,507.00
2023-05-18T05:44:38.798Z,510.00
2023-05-18T05:45:38.870Z,509.00
2023-05-18T05:46:38.887Z,501.00
2023-05-18T05:47:38.925Z,500.00
2023-05-18T05:48:38.906Z,505.00
2023-05-18T05:49:38.964Z,509.00
2023-05-18T05:50:39.011Z,502.00
2023-05-18T05:51:39.014Z,505.00
2023-05-18T05:52:39.033Z,507.00
2023-05-18T05:53:39.062Z,500.00
2023-05-18T05:54:39.098Z,509.00
2023-05-18T05:55:39.128Z,510.00
2023-05-18T05:56:39.152Z,501.00
2023-05-18T05:57:39.181Z,507.00
2023-05-18T05:58:39.211Z,510.00
2023-05-18T05:59:39.251Z,507.00
2023-05-18T06:00:39.286Z,512.00
2023-05-18T06:01:39.316Z,510.00
2023-05-18T06:02:39.424Z,507.00
2023-05-18T06:03:39.415Z,506.00
2023-05-18T06:04:39.403Z,508.00
2023-05-18T06:05:39.436Z,507.00
2023-05-18T06:06:39.456Z,510.00
2023-05-18T06:07:39.469Z,500.00
2023-05-18T06:08:39.489Z,510.00
2023-05-18T06:09:39.540Z,508.00
2023-05-18T06:10:39.545Z,507.00
2023-05-18T06:11:39.573Z,511.00
2023-05-18T06:12:39.607Z,508.00
2023-05-18T06:13:39.639Z,507.00
2023-05-18T06:14:39.688Z,510.00
2023-05-18T06:15:39.687Z,509.00
2023-05-18T06:16:39.828Z,510.00
2023-05-18T06:17:39.831Z,505.00
2023-05-18T06:18:39.809Z,511.00
2023-05-18T06:19:39.833Z,504.00
2023-05-18T06:20:39.825Z,509.00
2023-05-18T06:21:39.932Z,507.00
2023-05-18T06:22:39.879Z,509.00
2023-05-18T06:23:41.882Z,500.00
2023-05-18T06:24:39.902Z,515.00
2023-05-18T06:25:39.917Z,520.00
2023-05-18T06:26:39.908Z,508.00
2023-05-18T06:27:39.913Z,506.00
2023-05-18T06:28:39.903Z,504.00
2023-05-18T06:29:39.906Z,506.00
2023-05-18T06:30:39.905Z,507.00
2023-05-18T06:31:39.923Z,508.00
2023-05-18T06:32:39.917Z,507.00
2023-05-18T06:33:39.940Z,503.00
2023-05-18T06:34:39.920Z,507.00
2023-05-18T06:35:39.916Z,506.00
2023-05-18T06:36:39.924Z,507.00
2023-05-18T06:37:40.037Z,507.00
2023-05-18T06:38:39.944Z,511.00
2023-05-18T06:39:39.938Z,508.00
2023-05-18T06:40:39.948Z,509.00
2023-05-18T06:41:39.948Z,504.00
2023-05-18T06:42:39.964Z,507.00
2023-05-18T06:43:39.927Z,507.00
2023-05-18T06:44:39.961Z,503.00
2023-05-18T06:45:39.930Z,501.00
2023-05-18T06:46:40.019Z,506.00
2023-05-18T06:47:39.963Z,503.00
2023-05-18T06:48:39.915Z,510.00
2023-05-18T06:49:39.936Z,509.00
2023-05-18T06:50:39.931Z,507.00
2023-05-18T06:51:39.921Z,503.00
2023-05-18T06:52:39.922Z,505.00
2023-05-18T06:53:39.970Z,504.00
2023-05-18T06:54:39.935Z,506.00
2023-05-18T06:55:39.927Z,504.00
2023-05-18T06:56:39.926Z,509.00
2023-05-18T06:57:39.935Z,511.00
2023-05-18T06:58:39.928Z,505.00
2023-05-18T06:59:39.932Z,506.00
2023-05-18T07:00:39.922Z,503.00
2023-05-18T07:01:40.068Z,504.00
2023-05-18T07:02:39.941Z,509.00
2023-05-18T07:03:39.951Z,506.00
2023-05-18T07:04:39.922Z,508.00
2023-05-18T07:05:39.959Z,505.00
2023-05-18T07:06:39.905Z,504.00
2023-05-18T07:07:39.917Z,508.00
2023-05-18T07:08:39.906Z,508.00
2023-05-18T07:09:39.922Z,509.00
2023-05-18T07:10:39.898Z,506.00
2023-05-18T07:11:39.885Z,504.00
2023-05-18T07:12:39.896Z,503.00
2023-05-18T07:13:39.888Z,507.00
2023-05-18T07:14:39.892Z,509.00
2023-05-18T07:15:40.001Z,507.00
2023-05-18T07:16:39.907Z,506.00
2023-05-18T07:17:39.931Z,505.00
2023-05-18T07:18:39.985Z,510.00
2023-05-18T07:19:39.907Z,505.00
2023-05-18T07:20:39.899Z,504.00
2023-05-18T07:21:39.889Z,517.00
2023-05-18T07:22:39.902Z,511.00
2023-05-18T07:23:39.904Z,512.00
2023-05-18T07:24:39.909Z,512.00
2023-05-18T07:25:39.933Z,514.00
2023-05-18T07:26:39.894Z,509.00
2023-05-18T07:27:39.886Z,515.00
2023-05-18T07:28:39.916Z,511.00
2023-05-18T07:29:39.892Z,513.00
2023-05-18T07:30:39.931Z,512.00
2023-05-18T07:31:39.902Z,514.00
2023-05-18T07:32:39.916Z,511.00
2023-05-18T07:33:41.145Z,507.00
2023-05-18T07:34:39.896Z,516.00
2023-05-18T07:35:39.923Z,515.00
2023-05-18T07:36:39.909Z,514.00
2023-05-18T07:37:39.907Z,510.00
2023-05-18T07:38:39.909Z,517.00
2023-05-18T07:39:39.916Z,507.00
2023-05-18T07:40:39.896Z,521.00
2023-05-18T07:41:39.921Z,512.00
2023-05-18T07:42:39.897Z,515.00
2023-05-18T07:43:39.923Z,517.00
2023-05-18T07:44:39.975Z,513.00
2023-05-18T07:45:39.919Z,516.00
2023-05-18T07:46:39.924Z,513.00
2023-05-18T07:47:39.937Z,514.00
2023-05-18T07:48:41.146Z,516.00
2023-05-18T07:49:39.921Z,513.00
2023-05-18T07:50:39.935Z,512.00
2023-05-18T07:51:39.941Z,514.00
2023-05-18T07:52:39.957Z,518.00
2023-05-18T07:53:39.971Z,518.00
2023-05-18T07:54:39.976Z,515.00
2023-05-18T07:55:39.983Z,512.00
2023-05-18T07:56:39.999Z,516.00
2023-05-18T07:57:40.137Z,510.00
2023-05-18T07:58:40.006Z,520.00
2023-05-18T07:59:40.028Z,514.00
2023-05-18T08:00:40.054Z,513.00
2023-05-18T08:01:40.121Z,510.00
2023-05-18T08:02:40.405Z,512.00
2023-05-18T08:03:40.121Z,512.00
2023-05-18T08:04:40.072Z,517.00
2023-05-18T08:05:40.093Z,515.00
2023-05-18T08:06:40.098Z,514.00
2023-05-18T08:07:40.109Z,512.00
2023-05-18T08:08:40.117Z,511.00
2023-05-18T08:09:40.164Z,513.00
2023-05-18T08:10:40.176Z,515.00
2023-05-18T08:11:40.191Z,510.00
2023-05-18T08:12:40.222Z,516.00
2023-05-18T08:13:40.357Z,510.00
2023-05-18T08:14:40.214Z,510.00
2023-05-18T08:15:40.254Z,510.00
2023-05-18T08:16:40.282Z,507.00
2023-05-18T08:17:40.366Z,511.00
2023-05-18T08:18:40.458Z,508.00
2023-05-18T08:19:41.856Z,517.00
2023-05-18T08:20:40.559Z,514.00
2023-05-18T08:21:40.564Z,511.00
2023-05-18T08:22:40.588Z,513.00
2023-05-18T08:23:40.573Z,519.00
2023-05-18T08:24:40.582Z,513.00
2023-05-18T08:25:40.611Z,520.00
2023-05-18T08:26:40.608Z,514.00
2023-05-18T08:27:40.689Z,513.00
2023-05-18T08:28:40.624Z,517.00
2023-05-18T08:29:40.675Z,516.00
2023-05-18T08:30:40.634Z,514.00
2023-05-18T08:31:40.764Z,515.00
2023-05-18T08:32:40.741Z,514.00
2023-05-18T08:33:40.676Z,516.00
2023-05-18T08:34:40.694Z,514.00
2023-05-18T08:35:40.704Z,512.00
2023-05-18T08:36:40.695Z,515.00
2023-05-18T08:37:40.712Z,517.00
2023-05-18T08:38:40.722Z,520.00
2023-05-18T08:39:40.731Z,519.00
2023-05-18T08:40:40.727Z,515.00
2023-05-18T08:41:40.740Z,512.00
2023-05-18T08:42:49.535Z,519.00
2023-05-18T08:43:40.735Z,520.00
2023-05-18T08:44:40.746Z,521.00
2023-05-18T08:45:40.869Z,519.00
2023-05-18T08:46:40.741Z,521.00
2023-05-18T08:47:40.958Z,520.00
2023-05-18T08:48:40.829Z,524.00
2023-05-18T08:49:40.753Z,520.00
2023-05-18T08:50:40.766Z,520.00
2023-05-18T08:51:40.773Z,520.00
2023-05-18T08:52:40.747Z,521.00
2023-05-18T08:53:40.747Z,524.00
2023-05-18T08:54:40.751Z,525.00
2023-05-18T08:55:40.757Z,524.00
2023-05-18T08:56:40.772Z,521.00
2023-05-18T08:57:40.760Z,517.00
2023-05-18T08:58:40.756Z,522.00
2023-05-18T08:59:40.762Z,519.00
2023-05-18T09:00:40.750Z,520.00
2023-05-18T09:01:40.782Z,523.00
2023-05-18T09:02:40.773Z,521.00
2023-05-18T09:03:40.755Z,522.00
2023-05-18T09:04:40.753Z,523.00
2023-05-18T09:05:40.751Z,521.00
2023-05-18T09:06:40.724Z,527.00
2023-05-18T09:07:40.727Z,519.00
2023-05-18T09:08:40.732Z,521.00
2023-05-18T09:09:40.725Z,522.00
2023-05-18T09:10:40.725Z,529.00
2023-05-18T09:11:40.731Z,525.00
2023-05-18T09:12:40.731Z,523.00
2023-05-18T09:13:40.740Z,520.00
2023-05-18T09:14:40.735Z,526.00
2023-05-18T09:15:40.782Z,523.00
2023-05-18T09:16:40.747Z,522.00
2023-05-18T09:17:40.836Z,522.00
2023-05-18T09:18:40.751Z,524.00
2023-05-18T09:19:40.748Z,525.00
2023-05-18T09:20:40.757Z,530.00
2023-05-18T09:21:40.748Z,524.00
2023-05-18T09:22:40.778Z,525.00
2023-05-18T09:23:40.754Z,522.00
2023-05-18T09:24:40.758Z,536.00
2023-05-18T09:25:40.760Z,532.00
2023-05-18T09:26:40.775Z,528.00
2023-05-18T09:27:40.773Z,525.00
2023-05-18T09:28:40.816Z,524.00
2023-05-18T09:29:40.776Z,529.00
2023-05-18T09:30:40.774Z,530.00
2023-05-18T09:31:40.785Z,527.00
2023-05-18T09:32:40.834Z,526.00
2023-05-18T09:33:40.926Z,529.00
2023-05-18T09:34:40.748Z,523.00
2023-05-18T09:35:40.752Z,530.00
2023-05-18T09:36:40.753Z,526.00
2023-05-18T09:37:40.745Z,527.00
2023-05-18T09:38:40.750Z,526.00
2023-05-18T09:39:40.742Z,527.00
2023-05-18T09:40:40.738Z,530.00
2023-05-18T09:41:40.750Z,523.00
2023-05-18T09:42:40.781Z,531.00
2023-05-18T09:43:40.790Z,529.00
2023-05-18T09:44:40.733Z,523.00
2023-05-18T09:45:40.732Z,526.00
2023-05-18T09:46:40.757Z,525.00
2023-05-18T09:47:40.756Z,529.00
2023-05-18T09:48:40.733Z,528.00
2023-05-18T09:49:40.797Z,524.00
2023-05-18T09:50:40.724Z,525.00
2023-05-18T09:51:40.718Z,524.00
2023-05-18T09:52:40.721Z,522.00
2023-05-18T09:53:40.724Z,524.00
2023-05-18T09:54:40.718Z,523.00
2023-05-18T09:55:40.717Z,526.00
2023-05-18T09:56:40.710Z,523.00
2023-05-18T09:57:40.728Z,526.00
2023-05-18T09:58:40.715Z,530.00
2023-05-18T09:59:40.720Z,526.00
2023-05-18T10:00:40.749Z,527.00
2023-05-18T10:01:40.710Z,531.00
2023-05-18T10:02:40.758Z,524.00
2023-05-18T10:03:40.708Z,532.00
2023-05-18T10:04:40.757Z,526.00
2023-05-18T10:05:40.730Z,529.00
2023-05-18T10:06:40.698Z,524.00
2023-05-18T10:07:40.697Z,520.00
2023-05-18T10:08:40.699Z,524.00
2023-05-18T10:09:40.701Z,524.00
2023-05-18T10:10:40.738Z,522.00
2023-05-18T10:11:40.703Z,532.00
2023-05-18T10:12:40.708Z,528.00
2023-05-18T10:13:40.707Z,520.00
2023-05-18T10:14:40.707Z,520.00
2023-05-18T10:15:40.712Z,524.00
2023-05-18T10:16:40.739Z,530.00
2023-05-18T10:17:40.849Z,520.00
2023-05-18T10:18:40.758Z,525.00
2023-05-18T10:19:40.704Z,525.00
2023-05-18T10:20:40.710Z,525.00
2023-05-18T10:21:40.718Z,525.00
2023-05-18T10:22:40.692Z,527.00
2023-05-18T10:23:40.713Z,524.00
2023-05-18T10:24:40.695Z,526.00
2023-05-18T10:25:40.692Z,527.00
2023-05-18T10:26:40.672Z,528.00
2023-05-18T10:27:40.667Z,527.00
2023-05-18T10:28:40.662Z,522.00
2023-05-18T10:29:40.660Z,519.00
2023-05-18T10:30:40.704Z,521.00
2023-05-18T10:31:40.653Z,523.00
2023-05-18T10:32:40.670Z,528.00
2023-05-18T10:33:40.745Z,523.00
2023-05-18T10:34:40.660Z,519.00
2023-05-18T10:35:40.656Z,522.00
2023-05-18T10:36:40.655Z,521.00
2023-05-18T10:37:40.679Z,517.00
2023-05-18T10:38:40.753Z,521.00
2023-05-18T10:39:40.670Z,524.00
2023-05-18T10:40:40.703Z,525.00
2023-05-18T10:41:40.705Z,522.00
2023-05-18T10:42:40.709Z,514.00
2023-05-18T10:43:40.772Z,519.00
2023-05-18T10:44:40.812Z,523.00
2023-05-18T10:45:40.846Z,522.00
2023-05-18T10:46:40.914Z,513.00
2023-05-18T10:47:41.235Z,525.00
2023-05-18T10:48:41.057Z,520.00
2023-05-18T10:49:41.013Z,516.00
2023-05-18T10:50:41.102Z,522.00
2023-05-18T10:51:41.130Z,522.00
2023-05-18T10:52:41.173Z,520.00
2023-05-18T10:53:41.254Z,519.00
2023-05-18T10:54:41.298Z,520.00
2023-05-18T10:55:41.365Z,520.00
2023-05-18T10:56:41.426Z,518.00
2023-05-18T10:57:41.488Z,523.00
2023-05-18T10:58:41.552Z,520.00
2023-05-18T10:59:42.830Z,520.00
2023-05-18T11:00:41.685Z,524.00
2023-05-18T11:01:41.712Z,518.00
2023-05-18T11:02:41.764Z,521.00
2023-05-18T11:03:41.769Z,519.00
2023-05-18T11:04:41.869Z,520.00
2023-05-18T11:05:41.900Z,519.00
2023-05-18T11:06:41.923Z,524.00
2023-05-18T11:07:41.943Z,516.00
2023-05-18T11:08:41.995Z,523.00
2023-05-18T11:09:42.083Z,518.00
2023-05-18T11:10:42.111Z,524.00
2023-05-18T11:11:42.155Z,519.00
2023-05-18T11:12:42.210Z,520.00
2023-05-18T11:13:42.211Z,523.00
2023-05-18T11:14:42.280Z,522.00
2023-05-18T11:15:42.368Z,522.00
2023-05-18T11:16:42.460Z,527.00
2023-05-18T11:17:42.485Z,517.00
2023-05-18T11:18:42.536Z,521.00
2023-05-18T11:19:42.498Z,528.00
2023-05-18T11:20:42.567Z,520.00
2023-05-18T11:21:42.604Z,520.00
2023-05-18T11:22:42.682Z,527.00
2023-05-18T11:23:42.757Z,523.00
2023-05-18T11:24:42.815Z,529.00
2023-05-18T11:25:42.870Z,525.00
2023-05-18T11:26:42.891Z,523.00
2023-05-18T11:27:42.945Z,527.00
2023-05-18T11:28:43.018Z,522.00
2023-05-18T11:29:43.083Z,525.00
2023-05-18T11:30:43.172Z,525.00
2023-05-18T11:31:43.300Z,521.00
2023-05-18T11:32:43.403Z,526.00
2023-05-18T11:34:42.451Z,527.00
2023-05-18T11:35:43.450Z,523.00
2023-05-18T11:36:43.525Z,523.00
2023-05-18T11:37:43.534Z,522.00
2023-05-18T11:38:43.540Z,523.00
2023-05-18T11:39:55.281Z,523.00
2023-05-18T11:40:43.584Z,524.00
2023-05-18T11:41:43.603Z,525.00
2023-05-18T11:42:43.563Z,526.00
2023-05-18T11:43:43.563Z,528.00
2023-05-18T11:44:43.565Z,528.00
2023-05-18T11:45:43.570Z,529.00
2023-05-18T11:46:43.576Z,529.00
2023-05-18T11:47:43.626Z,528.00
2023-05-18T11:48:43.702Z,522.00
2023-05-18T11:49:43.556Z,511.00
2023-05-18T11:50:43.559Z,524.00
2023-05-18T11:51:43.554Z,523.00
2023-05-18T11:52:43.542Z,525.00
2023-05-18T11:53:43.541Z,523.00
2023-05-18T11:54:43.564Z,519.00
2023-05-18T11:55:43.579Z,530.00
2023-05-18T11:56:43.532Z,529.00
2023-05-18T11:57:43.564Z,522.00
2023-05-18T11:58:43.531Z,531.00
2023-05-18T11:59:43.526Z,524.00
2023-05-18T12:00:43.537Z,528.00
2023-05-18T12:01:43.571Z,526.00
2023-05-18T12:02:43.759Z,526.00
2023-05-18T12:03:44.860Z,524.00
2023-05-18T12:04:43.672Z,524.00
2023-05-18T12:05:43.529Z,525.00
2023-05-18T12:06:43.525Z,528.00
2023-05-18T12:07:43.524Z,529.00
2023-05-18T12:08:43.529Z,528.00
2023-05-18T12:09:43.535Z,533.00
2023-05-18T12:10:43.539Z,529.00
2023-05-18T12:11:43.551Z,527.00
2023-05-18T12:12:43.562Z,529.00
2023-05-18T12:13:43.585Z,531.00
2023-05-18T12:14:43.553Z,529.00
2023-05-18T12:15:43.560Z,530.00
2023-05-18T12:16:43.621Z,530.00
2023-05-18T12:17:43.633Z,527.00
2023-05-18T12:18:43.596Z,523.00
2023-05-18T12:19:43.532Z,521.00
2023-05-18T12:20:43.530Z,519.00
2023-05-18T12:21:43.527Z,519.00
2023-05-18T12:22:43.528Z,526.00
2023-05-18T12:23:43.541Z,525.00
2023-05-18T12:24:43.537Z,526.00
2023-05-18T12:25:43.548Z,523.00
2023-05-18T12:26:43.549Z,519.00
2023-05-18T12:27:43.640Z,529.00
2023-05-18T12:28:43.682Z,526.00
2023-05-18T12:29:43.846Z,521.00